Unser Flugplatzteam

Segelflugzeugschlepp am Flugplatz Konstanz

Unsere freundlichen Mitarbeiter stehen Ihnen gerne mit Rat und Tat zur Seite:

Robert Leitner

Flugleiter, Landesbeauftragter für Luftaufsicht am Verkehrlandeplatz Konstanz

Minky Schweizer

Flugleiterin

Live am Platz

Die Bilder unserer Webcams werden alle 5 Minuten aktualisiert.

Sonnenaufgang:

04:14 UTC / 06:14 Lokal

Sonnenuntergang:

18:42 UTC / 20:42 Lokal

METAR (12.08.2020 13:50 UTC):

EDNY 121150Z VRB02KT CAVOK 30/19 Q1016
VFR

TAF (12.08.2020 13:00 UTC):

TAF EDNY 121100Z 1212/1312 VRB03KT CAVOK TEMPO 1212/1216 23005KT BECMG 1306/1308 24007KT PROB30 TEMPO 1306/1310 25015G30KT TSRA FEW030 SCT050CB PROB30 TEMPO 1310/1312 03005KT

Alle Angaben unverbindlich und ohne Gewähr. Zeiten genähert.

Für den Verkehrslandeplatz Konstanz werden keine offiziellen Wetterinformationen ausgegeben. Daher werden zur Orientierung Daten des nahegelegenen Flughafens Friedrichshafen dargestellt.